Time;durP1;ratioP1;P1;durP2;ratioP2;P2;SDS_P1;SDS_P2;PMS_P1;PMS_P2;Temp;Humidity;BMP_temperature;BMP_pressure;BME280_temperature;BME280_humidity;BME280_pressure;Samples;Min_cycle;Max_cycle;Signal;HPM_P1;HPM_P2
2023/08/18 00:00:24;;;;;;;4.53;2.13;;;16.40;99.90;;;;;;4985071;28;20462;-81
2023/08/18 00:02:50;;;;;;;3.85;2.17;;;16.40;99.90;;;;;;4982805;28;20068;-82
2023/08/18 00:05:16;;;;;;;3.60;1.80;;;16.40;99.90;;;;;;4987212;28;20563;-82
2023/08/18 00:07:42;;;;;;;3.00;2.20;;;16.40;99.90;;;;;;4986611;28;20041;-81
2023/08/18 00:10:08;;;;;;;4.13;2.20;;;16.40;99.90;;;;;;4966847;28;20515;-81
2023/08/18 00:12:34;;;;;;;4.15;2.20;;;16.40;99.90;;;;;;4986973;28;20069;-81
2023/08/18 00:15:01;;;;;;;5.03;2.20;;;16.40;99.90;;;;;;4986534;28;20125;-81
2023/08/18 00:17:27;;;;;;;4.03;2.13;;;16.40;99.90;;;;;;4987140;28;20050;-81
2023/08/18 00:19:52;;;;;;;2.05;1.80;;;16.40;99.90;;;;;;4986259;28;20046;-81
2023/08/18 00:22:18;;;;;;;3.60;1.85;;;16.30;99.90;;;;;;4987529;28;20133;-82
2023/08/18 00:24:44;;;;;;;2.65;1.90;;;16.40;99.90;;;;;;4987582;28;20108;-81
2023/08/18 00:27:10;;;;;;;2.47;1.95;;;16.30;99.90;;;;;;4986920;28;20104;-81
2023/08/18 00:29:36;;;;;;;4.25;2.00;;;16.30;99.90;;;;;;4987874;28;20413;-81
2023/08/18 00:32:02;;;;;;;3.47;1.98;;;16.30;99.90;;;;;;4955717;28;20106;-81
2023/08/18 00:34:28;;;;;;;4.32;2.15;;;16.30;99.90;;;;;;4988743;28;20113;-81
2023/08/18 00:36:53;;;;;;;3.03;1.85;;;16.30;99.90;;;;;;4988473;28;20156;-81
2023/08/18 00:39:19;;;;;;;4.30;1.95;;;16.30;99.90;;;;;;4987135;28;20043;-81
2023/08/18 00:41:44;;;;;;;2.95;1.90;;;16.30;99.90;;;;;;4985864;28;20070;-81
2023/08/18 00:44:10;;;;;;;4.70;1.90;;;16.30;99.90;;;;;;4984168;28;20054;-82
2023/08/18 00:46:36;;;;;;;3.45;1.98;;;16.30;99.90;;;;;;4987125;28;20058;-82
2023/08/18 00:49:04;;;;;;;3.08;2.22;;;16.30;99.90;;;;;;4986495;28;20092;-81
2023/08/18 00:51:32;;;;;;;4.07;2.20;;;16.30;99.90;;;;;;4987017;28;20062;-81
2023/08/18 00:53:58;;;;;;;3.08;2.00;;;16.30;99.90;;;;;;4986921;28;20085;-81
2023/08/18 00:56:24;;;;;;;2.63;2.15;;;16.20;99.90;;;;;;4986381;28;20093;-82
2023/08/18 00:58:50;;;;;;;4.10;2.30;;;16.30;99.90;;;;;;4987849;28;20081;-81
2023/08/18 01:01:16;;;;;;;3.22;2.50;;;16.30;99.90;;;;;;4986398;28;20133;-82
2023/08/18 01:03:42;;;;;;;4.53;2.30;;;16.30;99.90;;;;;;4985704;28;20093;-82
2023/08/18 01:06:08;;;;;;;3.55;2.30;;;16.30;99.90;;;;;;4988066;28;20073;-81
2023/08/18 01:08:33;;;;;;;2.80;2.20;;;16.30;99.90;;;;;;4972686;28;20046;-81
2023/08/18 01:11:35;;;;;;;4.70;2.20;;;16.30;99.90;;;;;;4986647;28;20042;-81
2023/08/18 01:14:08;;;;;;;3.88;2.20;;;16.30;99.90;;;;;;4984562;28;20042;-81
2023/08/18 01:16:36;;;;;;;2.92;2.15;;;16.20;99.90;;;;;;4984192;28;20134;-82
2023/08/18 01:19:03;;;;;;;4.88;2.35;;;16.30;99.90;;;;;;4986074;28;20047;-82
2023/08/18 01:21:29;;;;;;;5.03;2.10;;;16.30;99.90;;;;;;4986239;28;20116;-81
2023/08/18 01:23:55;;;;;;;3.25;2.50;;;16.20;99.90;;;;;;4986838;28;20049;-81
2023/08/18 01:26:21;;;;;;;5.13;1.90;;;16.30;99.90;;;;;;4989528;28;20050;-81
2023/08/18 01:28:47;;;;;;;3.00;2.38;;;16.30;99.90;;;;;;4983071;28;20175;-81
2023/08/18 01:31:21;;;;;;;4.07;2.55;;;16.30;99.90;;;;;;4979953;28;20051;-81
2023/08/18 01:33:58;;;;;;;4.38;2.30;;;16.20;99.90;;;;;;4988173;28;20121;-82
2023/08/18 01:36:29;;;;;;;3.67;2.47;;;16.20;99.90;;;;;;4990711;28;20100;-81
2023/08/18 01:38:55;;;;;;;3.90;2.45;;;16.30;99.90;;;;;;4989781;28;20121;-82
2023/08/18 01:41:24;;;;;;;3.42;2.20;;;16.20;99.90;;;;;;4987502;28;20034;-81
2023/08/18 01:43:50;;;;;;;3.78;2.58;;;16.20;99.90;;;;;;4978433;28;20050;-82
2023/08/18 01:46:16;;;;;;;5.43;2.65;;;16.20;99.90;;;;;;4989649;28;20348;-81
2023/08/18 01:48:41;;;;;;;3.88;2.45;;;16.20;99.90;;;;;;4988681;28;20057;-82
2023/08/18 01:51:07;;;;;;;4.85;2.47;;;16.20;99.90;;;;;;4989155;28;20050;-82
2023/08/18 01:53:32;;;;;;;3.78;2.30;;;16.30;99.90;;;;;;4988598;28;20503;-81
2023/08/18 01:56:02;;;;;;;5.70;2.50;;;16.20;99.90;;;;;;4990830;28;20129;-81
2023/08/18 01:58:28;;;;;;;4.40;2.25;;;16.20;99.90;;;;;;4988497;28;20081;-81
2023/08/18 02:00:58;;;;;;;3.85;2.45;;;16.20;99.90;;;;;;4988369;28;20077;-81
2023/08/18 02:03:25;;;;;;;4.93;2.80;;;16.20;99.90;;;;;;4990491;28;20039;-82
2023/08/18 02:05:56;;;;;;;9.35;2.65;;;16.20;99.90;;;;;;4990449;28;20550;-81
2023/08/18 02:08:22;;;;;;;2.72;2.47;;;16.20;99.90;;;;;;4979200;28;20046;-82
2023/08/18 02:10:48;;;;;;;4.57;2.67;;;16.20;99.90;;;;;;4989794;28;20466;-81
2023/08/18 02:13:14;;;;;;;5.57;2.60;;;16.20;99.90;;;;;;4988618;28;20046;-81
2023/08/18 02:15:40;;;;;;;4.43;2.70;;;16.10;99.90;;;;;;4989139;28;20058;-81
2023/08/18 02:18:05;;;;;;;4.05;2.60;;;16.20;99.90;;;;;;4989082;28;20043;-81
2023/08/18 02:20:31;;;;;;;5.93;2.78;;;16.20;99.90;;;;;;4989866;28;20165;-82
2023/08/18 02:22:57;;;;;;;5.30;3.10;;;16.10;99.90;;;;;;4990249;28;20200;-81
2023/08/18 02:25:23;;;;;;;9.27;3.33;;;16.10;99.90;;;;;;4989582;28;20153;-82
2023/08/18 02:27:49;;;;;;;5.53;2.88;;;16.10;99.90;;;;;;4989909;28;20042;-81
2023/08/18 02:30:16;;;;;;;5.55;2.95;;;16.10;99.90;;;;;;4989475;28;20047;-82
2023/08/18 02:32:42;;;;;;;7.13;3.35;;;16.10;99.90;;;;;;4979856;28;20516;-81
2023/08/18 02:35:08;;;;;;;5.50;3.25;;;16.30;99.90;;;;;;4975837;28;20042;-81
2023/08/18 02:37:33;;;;;;;4.28;3.10;;;16.20;99.90;;;;;;4988562;28;20503;-81
2023/08/18 02:39:59;;;;;;;6.28;3.35;;;16.20;99.90;;;;;;4987956;28;20065;-81
2023/08/18 02:42:25;;;;;;;6.28;3.33;;;16.10;99.90;;;;;;4989852;28;20039;-81
2023/08/18 02:44:50;;;;;;;6.43;3.53;;;16.10;99.90;;;;;;4984402;28;20476;-81
2023/08/18 02:47:17;;;;;;;7.30;3.13;;;16.10;99.90;;;;;;4987369;28;20129;-81
2023/08/18 02:49:43;;;;;;;6.00;3.30;;;16.10;99.90;;;;;;4979475;28;20185;-81
2023/08/18 02:52:10;;;;;;;5.38;3.20;;;16.20;99.90;;;;;;4988895;28;20092;-81
2023/08/18 02:54:35;;;;;;;7.35;3.60;;;16.10;99.90;;;;;;4988524;28;20042;-81
2023/08/18 02:57:01;;;;;;;4.93;3.17;;;16.10;99.90;;;;;;4971046;28;20409;-81
2023/08/18 02:59:27;;;;;;;7.18;3.58;;;16.10;99.90;;;;;;4988879;28;20054;-82
2023/08/18 03:01:52;;;;;;;6.95;3.50;;;16.10;99.90;;;;;;4987691;28;20065;-81
2023/08/18 03:04:18;;;;;;;7.18;3.08;;;16.10;99.90;;;;;;4988134;28;20416;-81
2023/08/18 03:06:44;;;;;;;5.60;3.38;;;16.10;99.90;;;;;;4988650;28;20050;-81
2023/08/18 03:09:09;;;;;;;7.97;3.42;;;16.00;99.90;;;;;;4988848;28;20237;-81
2023/08/18 03:11:35;;;;;;;5.20;3.78;;;16.20;99.90;;;;;;4988843;28;20046;-81
2023/08/18 03:14:01;;;;;;;6.68;3.65;;;16.00;99.90;;;;;;4988085;28;20034;-81
2023/08/18 03:16:26;;;;;;;6.90;3.58;;;16.10;99.90;;;;;;4985849;28;20038;-81
2023/08/18 03:18:52;;;;;;;5.63;3.67;;;16.10;99.90;;;;;;4981118;28;20047;-81
2023/08/18 03:21:17;;;;;;;4.65;3.60;;;16.10;99.90;;;;;;4976570;28;20042;-81
2023/08/18 03:23:43;;;;;;;8.00;3.58;;;16.10;99.90;;;;;;4974194;28;20034;-81
2023/08/18 03:26:08;;;;;;;6.60;3.72;;;16.10;99.90;;;;;;4986666;28;20076;-81
2023/08/18 03:28:38;;;;;;;5.95;3.47;;;16.00;99.90;;;;;;4988494;28;20041;-81
2023/08/18 03:31:05;;;;;;;4.85;3.22;;;16.10;99.90;;;;;;4988079;28;20070;-81
2023/08/18 03:33:31;;;;;;;7.00;3.40;;;16.10;99.90;;;;;;4983674;28;20046;-81
2023/08/18 03:35:57;;;;;;;5.55;3.70;;;16.10;99.90;;;;;;4987595;28;20061;-81
2023/08/18 03:38:23;;;;;;;6.78;3.83;;;16.00;99.90;;;;;;4986446;28;20041;-82
2023/08/18 03:41:00;;;;;;;6.18;3.90;;;16.10;99.90;;;;;;4987585;28;20038;-81
2023/08/18 03:43:26;;;;;;;6.57;3.70;;;16.00;99.90;;;;;;4987486;28;20077;-81
2023/08/18 03:45:51;;;;;;;6.60;3.47;;;16.10;99.90;;;;;;4984696;28;20065;-81
2023/08/18 03:48:17;;;;;;;8.77;3.90;;;16.10;99.90;;;;;;4986774;28;20054;-82
2023/08/18 03:50:43;;;;;;;8.90;3.90;;;16.00;99.90;;;;;;4985498;28;20065;-82
2023/08/18 03:53:08;;;;;;;9.65;4.00;;;16.10;99.90;;;;;;4988164;28;20053;-83
2023/08/18 03:55:34;;;;;;;7.20;3.80;;;16.00;99.90;;;;;;4987393;28;20815;-82
2023/08/18 03:58:00;;;;;;;4.30;3.65;;;16.10;99.90;;;;;;4987446;28;20423;-82
2023/08/18 04:00:25;;;;;;;6.93;4.05;;;16.00;99.90;;;;;;4970669;28;20416;-82
2023/08/18 04:02:51;;;;;;;6.35;3.90;;;16.10;99.90;;;;;;4988154;28;20042;-82
2023/08/18 04:05:16;;;;;;;4.57;3.78;;;16.10;99.90;;;;;;4987834;28;20046;-82
2023/08/18 04:07:42;;;;;;;10.57;4.38;;;16.10;99.90;;;;;;4981698;28;20035;-82
2023/08/18 04:10:08;;;;;;;4.97;3.90;;;16.10;99.90;;;;;;4977161;28;20046;-82
2023/08/18 04:12:34;;;;;;;5.40;3.75;;;16.10;99.90;;;;;;4988709;28;20046;-82
2023/08/18 04:15:00;;;;;;;5.05;3.55;;;16.00;99.90;;;;;;4988297;28;20046;-82
2023/08/18 04:17:25;;;;;;;10.13;3.97;;;16.10;99.90;;;;;;4957342;28;20152;-82
2023/08/18 04:19:51;;;;;;;6.35;4.05;;;16.10;99.90;;;;;;4987280;28;20042;-82
2023/08/18 04:22:17;;;;;;;8.00;4.00;;;16.10;99.90;;;;;;4987367;28;20502;-82
2023/08/18 04:24:42;;;;;;;7.10;3.65;;;16.10;99.90;;;;;;4985757;28;20413;-82
2023/08/18 04:27:08;;;;;;;6.53;3.90;;;16.10;99.90;;;;;;4976495;28;20046;-82
2023/08/18 04:29:34;;;;;;;5.85;3.67;;;16.10;99.90;;;;;;4987387;28;20045;-82
2023/08/18 04:31:59;;;;;;;9.20;4.30;;;16.00;99.90;;;;;;4968247;28;20101;-82
2023/08/18 04:34:25;;;;;;;6.30;4.07;;;16.10;99.90;;;;;;4984709;28;20046;-82
2023/08/18 04:36:50;;;;;;;6.80;4.00;;;16.10;99.90;;;;;;4987727;28;20061;-82
2023/08/18 04:39:16;;;;;;;5.53;4.05;;;16.10;99.90;;;;;;4985870;28;20073;-82
2023/08/18 04:41:42;;;;;;;6.53;4.45;;;16.10;99.90;;;;;;4978502;28;20555;-82
2023/08/18 04:44:08;;;;;;;10.27;4.43;;;16.10;99.90;;;;;;4973882;28;20058;-82
2023/08/18 04:46:34;;;;;;;5.65;4.45;;;16.20;99.90;;;;;;4985202;28;20093;-82
2023/08/18 04:48:59;;;;;;;6.85;4.30;;;16.20;99.90;;;;;;4986996;28;20050;-82
2023/08/18 04:51:25;;;;;;;6.43;4.30;;;16.20;99.90;;;;;;4978677;28;20050;-82
2023/08/18 04:53:50;;;;;;;7.05;4.40;;;16.20;99.90;;;;;;4970091;28;20093;-81
2023/08/18 04:56:16;;;;;;;6.95;4.22;;;16.20;99.90;;;;;;4987547;28;20077;-82
2023/08/18 04:58:42;;;;;;;9.13;4.65;;;16.20;99.90;;;;;;4986089;28;20385;-82
2023/08/18 05:01:08;;;;;;;6.07;4.70;;;16.20;99.90;;;;;;4990283;28;20530;-82
2023/08/18 05:03:34;;;;;;;8.38;4.80;;;16.20;99.90;;;;;;4989440;28;20042;-82
2023/08/18 05:06:08;;;;;;;5.75;4.20;;;16.20;99.90;;;;;;4991183;28;20141;-82
2023/08/18 05:08:34;;;;;;;4.75;4.10;;;16.20;99.90;;;;;;4963516;28;20046;-82
2023/08/18 05:11:08;;;;;;;4.65;4.07;;;16.20;99.90;;;;;;4990843;28;20508;-82
2023/08/18 05:13:36;;;;;;;6.18;4.00;;;16.30;99.90;;;;;;4973267;28;20046;-82
2023/08/18 05:16:03;;;;;;;6.70;4.13;;;16.30;99.90;;;;;;4990329;28;20085;-82
2023/08/18 05:18:29;;;;;;;5.82;4.25;;;16.40;99.90;;;;;;4981346;28;20051;-81
2023/08/18 05:20:59;;;;;;;6.13;4.20;;;16.30;99.90;;;;;;4987191;28;20046;-81
2023/08/18 05:23:25;;;;;;;6.38;4.90;;;16.40;99.90;;;;;;4990198;28;20047;-81
2023/08/18 05:25:55;;;;;;;4.20;3.80;;;16.40;99.90;;;;;;4988258;28;20465;-81
2023/08/18 05:28:22;;;;;;;4.95;4.43;;;16.40;99.90;;;;;;4986587;28;20041;-81
2023/08/18 05:30:48;;;;;;;9.50;4.60;;;16.40;99.90;;;;;;4989391;28;20038;-81
2023/08/18 05:33:14;;;;;;;9.38;4.18;;;16.40;99.90;;;;;;4984359;28;20158;-81
2023/08/18 05:35:40;;;;;;;6.38;4.70;;;16.50;99.90;;;;;;4989974;28;20069;-81
2023/08/18 05:38:12;;;;;;;6.53;4.53;;;16.50;99.90;;;;;;4995326;28;20058;-81
2023/08/18 05:40:42;;;;;;;10.73;5.13;;;16.50;99.90;;;;;;4989773;28;20046;-81
2023/08/18 05:43:09;;;;;;;6.32;4.35;;;16.50;99.90;;;;;;4990543;28;20062;-81
2023/08/18 05:45:36;;;;;;;7.25;4.68;;;16.50;99.90;;;;;;4990975;28;20421;-82
2023/08/18 05:48:02;;;;;;;7.63;5.35;;;16.50;99.90;;;;;;4990099;28;20050;-83
2023/08/18 05:50:29;;;;;;;6.45;4.75;;;16.50;99.90;;;;;;4988175;28;20061;-81
2023/08/18 05:52:55;;;;;;;8.32;5.40;;;16.50;99.90;;;;;;4970195;28;20497;-81
2023/08/18 05:55:21;;;;;;;8.00;5.10;;;16.60;99.90;;;;;;4986755;28;20052;-81
2023/08/18 05:57:47;;;;;;;7.10;5.00;;;16.50;99.90;;;;;;4990759;28;20496;-82
2023/08/18 06:00:13;;;;;;;6.63;5.35;;;16.50;99.90;;;;;;4990865;28;20050;-81
2023/08/18 06:02:39;;;;;;;7.70;5.47;;;16.50;99.90;;;;;;4990686;28;20054;-81
2023/08/18 06:05:05;;;;;;;9.23;5.55;;;16.50;99.90;;;;;;4987814;28;20116;-81
2023/08/18 06:07:30;;;;;;;7.53;5.32;;;16.40;99.90;;;;;;4986398;28;20038;-82
2023/08/18 06:09:56;;;;;;;8.13;5.68;;;16.50;99.90;;;;;;4988151;28;20132;-82
2023/08/18 06:12:21;;;;;;;12.07;6.82;;;16.60;99.90;;;;;;4987809;28;20527;-82
2023/08/18 06:14:47;;;;;;;12.18;6.38;;;16.50;99.90;;;;;;4989058;28;20506;-81
2023/08/18 06:17:12;;;;;;;11.38;6.75;;;16.50;99.90;;;;;;4990313;28;20057;-80
2023/08/18 06:19:38;;;;;;;12.57;6.57;;;16.50;99.90;;;;;;4981378;28;20042;-81
2023/08/18 06:22:04;;;;;;;13.35;7.28;;;16.50;99.90;;;;;;4982569;28;20050;-81
2023/08/18 06:24:29;;;;;;;14.02;6.90;;;16.60;99.90;;;;;;4990008;28;20050;-81
2023/08/18 06:26:55;;;;;;;12.45;7.20;;;16.60;99.90;;;;;;4989654;28;20055;-80
2023/08/18 06:29:20;;;;;;;11.38;7.15;;;16.60;99.90;;;;;;4988653;28;20089;-80
2023/08/18 06:31:46;;;;;;;8.77;6.95;;;16.60;99.90;;;;;;4989570;28;20041;-81
2023/08/18 06:34:11;;;;;;;11.93;6.68;;;16.60;99.90;;;;;;4990256;28;20042;-83
2023/08/18 06:36:37;;;;;;;12.27;6.72;;;16.70;99.90;;;;;;4980299;28;20185;-81
2023/08/18 06:39:03;;;;;;;11.70;6.65;;;16.70;99.90;;;;;;4971922;28;20121;-81
2023/08/18 06:41:28;;;;;;;10.07;6.72;;;16.70;99.90;;;;;;4969842;28;20051;-81
2023/08/18 06:43:54;;;;;;;10.15;6.38;;;16.80;99.90;;;;;;4969268;28;20059;-81
2023/08/18 06:46:20;;;;;;;11.20;6.72;;;16.80;99.90;;;;;;4969282;28;20047;-81
2023/08/18 06:48:46;;;;;;;9.05;5.88;;;16.80;99.90;;;;;;4968479;28;20051;-81
2023/08/18 06:51:11;;;;;;;8.98;6.10;;;16.80;99.90;;;;;;4964285;28;20046;-82
2023/08/18 06:53:37;;;;;;;10.45;6.10;;;16.90;99.90;;;;;;4970321;28;20120;-81
2023/08/18 06:56:03;;;;;;;11.15;6.40;;;16.90;99.90;;;;;;4970531;28;20047;-81
2023/08/18 06:58:30;;;;;;;8.88;6.40;;;17.00;99.90;;;;;;4966931;28;20144;-82
2023/08/18 07:00:55;;;;;;;8.65;6.45;;;17.00;99.90;;;;;;4968475;28;20043;-82
2023/08/18 07:03:21;;;;;;;7.65;5.88;;;17.10;99.90;;;;;;4967945;28;20057;-81
2023/08/18 07:05:47;;;;;;;9.50;6.07;;;17.10;99.90;;;;;;4968799;28;20050;-82
2023/08/18 07:08:12;;;;;;;10.98;6.32;;;17.00;99.90;;;;;;4984007;28;20118;-81
2023/08/18 07:10:38;;;;;;;11.13;7.20;;;17.10;99.90;;;;;;4988102;28;20477;-81
2023/08/18 07:13:03;;;;;;;10.85;6.97;;;17.10;99.90;;;;;;4988809;28;20069;-82
2023/08/18 07:15:29;;;;;;;10.43;7.20;;;17.20;99.90;;;;;;4989395;28;20510;-81
2023/08/18 07:17:54;;;;;;;10.70;7.25;;;17.20;99.90;;;;;;4988966;28;20108;-82
2023/08/18 07:20:20;;;;;;;11.95;7.95;;;17.20;99.90;;;;;;4987270;28;20048;-82
2023/08/18 07:22:46;;;;;;;14.98;9.27;;;17.30;99.90;;;;;;4955837;28;20125;-82
2023/08/18 07:25:12;;;;;;;14.98;8.15;;;17.30;99.90;;;;;;4969914;28;20157;-82
2023/08/18 07:27:37;;;;;;;15.60;7.82;;;17.30;99.90;;;;;;4969057;28;20409;-81
2023/08/18 07:30:04;;;;;;;14.02;7.82;;;17.30;99.90;;;;;;4968583;28;20043;-81
2023/08/18 07:32:30;;;;;;;14.93;7.90;;;17.40;99.90;;;;;;4969720;28;20047;-81
2023/08/18 07:34:55;;;;;;;12.85;7.45;;;17.40;99.90;;;;;;4969290;28;20529;-81
2023/08/18 07:37:21;;;;;;;13.52;7.97;;;17.50;99.90;;;;;;4968465;28;20077;-81
2023/08/18 07:39:47;;;;;;;16.73;8.95;;;17.50;99.90;;;;;;4968476;28;20460;-82
2023/08/18 07:42:12;;;;;;;14.32;7.75;;;17.50;99.90;;;;;;4969037;28;20074;-82
2023/08/18 07:44:38;;;;;;;18.63;8.20;;;17.60;99.90;;;;;;4969283;28;20063;-81
2023/08/18 07:47:03;;;;;;;15.82;8.35;;;17.60;99.90;;;;;;4969702;28;20575;-82
2023/08/18 07:49:29;;;;;;;16.10;8.45;;;17.70;99.90;;;;;;4969255;28;20139;-81
2023/08/18 07:51:55;;;;;;;15.15;8.05;;;17.80;99.90;;;;;;4980535;28;20051;-82
2023/08/18 07:54:22;;;;;;;19.30;7.78;;;17.80;99.90;;;;;;4986599;28;20050;-81
2023/08/18 07:56:48;;;;;;;15.35;8.32;;;17.80;99.90;;;;;;4988736;28;20081;-82
2023/08/18 07:59:14;;;;;;;13.55;7.72;;;17.80;99.90;;;;;;4980728;28;20046;-82
2023/08/18 08:01:39;;;;;;;13.63;8.02;;;17.90;99.90;;;;;;4986805;28;20041;-81
2023/08/18 08:04:05;;;;;;;12.95;7.32;;;17.90;99.90;;;;;;4984756;28;20045;-81
2023/08/18 08:06:31;;;;;;;15.27;8.13;;;18.20;99.90;;;;;;4983944;28;20449;-81
2023/08/18 08:08:58;;;;;;;13.20;7.07;;;18.00;99.90;;;;;;4979310;28;20077;-81
2023/08/18 08:11:23;;;;;;;14.05;7.60;;;18.00;99.90;;;;;;4965539;28;20057;-81
2023/08/18 08:13:49;;;;;;;11.00;7.28;;;18.10;99.90;;;;;;4979819;28;20129;-81
2023/08/18 08:16:14;;;;;;;13.27;7.13;;;18.00;99.90;;;;;;4980081;28;20057;-81
2023/08/18 08:18:40;;;;;;;11.20;7.18;;;18.00;99.90;;;;;;4981689;28;20074;-81
2023/08/18 08:21:06;;;;;;;15.38;7.57;;;18.00;99.90;;;;;;4983282;28;20109;-81
2023/08/18 08:23:31;;;;;;;13.43;7.90;;;18.10;99.90;;;;;;4976312;28;20058;-82
2023/08/18 08:25:57;;;;;;;12.25;7.10;;;18.10;99.90;;;;;;4972642;28;20057;-81
2023/08/18 08:28:23;;;;;;;11.70;7.32;;;18.00;99.90;;;;;;4976355;28;20051;-81
2023/08/18 08:30:48;;;;;;;13.05;8.10;;;18.00;99.90;;;;;;4984393;28;20198;-81
2023/08/18 08:33:14;;;;;;;15.38;8.15;;;18.10;99.90;;;;;;4980687;28;20133;-81
2023/08/18 08:35:39;;;;;;;11.90;7.75;;;18.10;99.90;;;;;;4988771;28;20046;-82
2023/08/18 08:38:05;;;;;;;11.95;8.15;;;18.10;99.90;;;;;;4989825;28;20081;-82
2023/08/18 08:40:31;;;;;;;12.55;8.60;;;18.60;99.90;;;;;;4990620;28;20050;-86
2023/08/18 08:42:57;;;;;;;18.40;8.82;;;18.30;99.90;;;;;;4988678;28;20046;-84
2023/08/18 08:45:27;;;;;;;12.18;7.57;;;18.40;99.90;;;;;;4992218;28;20476;-82
2023/08/18 08:47:55;;;;;;;13.52;8.70;;;18.50;99.90;;;;;;4987587;28;20053;-83
2023/08/18 08:50:23;;;;;;;14.68;8.63;;;18.60;99.90;;;;;;4958722;28;20046;-84
2023/08/18 08:52:51;;;;;;;13.18;7.72;;;19.10;99.90;;;;;;4987316;28;20069;-82
2023/08/18 08:55:21;;;;;;;14.68;8.02;;;19.10;99.90;;;;;;4974273;28;20043;-83
2023/08/18 08:57:47;;;;;;;13.40;8.30;;;19.00;99.90;;;;;;4969768;28;20077;-83
2023/08/18 09:00:14;;;;;;;12.55;7.50;;;19.10;99.90;;;;;;4986814;28;20141;-82
2023/08/18 09:02:42;;;;;;;12.45;7.78;;;19.30;99.90;;;;;;4983761;28;20523;-82
2023/08/18 09:05:07;;;;;;;14.10;8.77;;;19.40;99.90;;;;;;4971071;28;20085;-83
2023/08/18 09:07:33;;;;;;;12.63;8.20;;;19.40;99.90;;;;;;4983712;28;20070;-84
2023/08/18 09:09:59;;;;;;;14.65;8.98;;;19.40;99.90;;;;;;4977234;28;20042;-82
2023/08/18 09:12:30;;;;;;;11.27;8.20;;;19.50;99.90;;;;;;4988616;28;20042;-81
2023/08/18 09:14:58;;;;;;;14.43;7.80;;;19.50;99.90;;;;;;4991652;28;20493;-81
2023/08/18 09:17:26;;;;;;;17.98;9.48;;;19.60;99.90;;;;;;5001938;28;20455;-81
2023/08/18 09:19:56;;;;;;;17.75;8.73;;;19.60;99.90;;;;;;5001374;28;20504;-80
2023/08/18 09:22:22;;;;;;;15.40;8.75;;;19.70;99.90;;;;;;4987543;28;20479;-81
2023/08/18 09:24:53;;;;;;;21.80;8.95;;;19.80;99.90;;;;;;4971683;28;20049;-82
2023/08/18 09:27:20;;;;;;;18.35;8.70;;;19.90;99.90;;;;;;4978037;28;20058;-81
2023/08/18 09:29:45;;;;;;;14.75;9.02;;;20.00;99.90;;;;;;4972040;28;20134;-81
2023/08/18 09:32:11;;;;;;;17.77;8.80;;;20.00;99.90;;;;;;4979824;28;20481;-81
2023/08/18 09:34:37;;;;;;;15.02;8.25;;;20.10;99.90;;;;;;4972551;28;20453;-81
2023/08/18 09:37:04;;;;;;;12.68;7.80;;;20.10;99.90;;;;;;4981445;28;20060;-81
2023/08/18 09:39:30;;;;;;;14.02;7.90;;;20.00;99.90;;;;;;4985226;28;20050;-81
2023/08/18 09:41:55;;;;;;;31.38;10.05;;;20.00;99.90;;;;;;4985269;28;20054;-82
2023/08/18 09:44:24;;;;;;;11.05;6.85;;;20.00;99.90;;;;;;4988494;28;20057;-81
2023/08/18 09:46:57;;;;;;;8.65;6.43;;;20.10;99.90;;;;;;4985580;28;20039;-81
2023/08/18 09:49:24;;;;;;;16.30;7.28;;;20.10;99.90;;;;;;4973219;28;20536;-80
2023/08/18 09:52:04;;;;;;;11.20;6.75;;;20.30;99.90;;;;;;4990770;28;20508;-81
2023/08/18 09:54:39;;;;;;;9.85;6.93;;;20.50;99.90;;;;;;4987000;28;20041;-82
2023/08/18 09:57:09;;;;;;;14.05;7.30;;;20.50;99.90;;;;;;4981319;28;20575;-82
2023/08/18 09:59:43;;;;;;;13.07;7.10;;;20.50;99.90;;;;;;4971542;28;20110;-82
2023/08/18 10:02:14;;;;;;;16.67;7.63;;;20.50;99.90;;;;;;4993602;28;20046;-81
2023/08/18 10:04:40;;;;;;;13.50;7.20;;;20.50;99.90;;;;;;4990833;28;20050;-82
2023/08/18 10:07:06;;;;;;;9.52;7.25;;;20.50;99.90;;;;;;4990860;28;20121;-81
2023/08/18 10:09:33;;;;;;;15.93;7.75;;;20.60;99.90;;;;;;4980833;28;20053;-81
2023/08/18 10:12:01;;;;;;;15.02;8.30;;;20.60;99.90;;;;;;4962089;28;20038;-82
2023/08/18 10:14:27;;;;;;;8.95;7.40;;;20.60;99.90;;;;;;4986399;28;20042;-81
2023/08/18 10:16:55;;;;;;;16.33;8.70;;;20.60;99.90;;;;;;4984402;28;20050;-80
2023/08/18 10:19:51;;;;;;;14.55;8.13;;;20.60;99.90;;;;;;5000390;28;20050;-81
2023/08/18 10:22:18;;;;;;;10.57;8.07;;;20.70;99.90;;;;;;4985067;28;20050;-81
2023/08/18 10:24:48;;;;;;;19.75;8.40;;;20.60;99.90;;;;;;4989632;28;20148;-81
2023/08/18 10:27:30;;;;;;;9.73;7.00;;;20.70;99.90;;;;;;4989815;28;20046;-80
2023/08/18 10:30:23;;;;;;;9.77;7.45;;;20.80;99.90;;;;;;4987411;28;20052;-80
2023/08/18 10:32:51;;;;;;;11.55;8.15;;;20.90;99.90;;;;;;4980120;28;20536;-80
2023/08/18 10:35:27;;;;;;;9.93;7.93;;;21.00;99.90;;;;;;4976287;28;20055;-81
2023/08/18 10:38:03;;;;;;;10.50;7.88;;;21.10;99.90;;;;;;4971882;28;20460;-81
2023/08/18 10:40:38;;;;;;;10.98;7.82;;;21.20;99.90;;;;;;4984731;28;20042;-81
2023/08/18 10:43:09;;;;;;;14.25;7.55;;;21.30;99.90;;;;;;4980883;28;20057;-81
2023/08/18 10:45:35;;;;;;;13.30;8.13;;;21.40;99.90;;;;;;4973578;28;20038;-81
2023/08/18 10:48:05;;;;;;;11.13;8.05;;;21.50;99.90;;;;;;4983763;28;20046;-81
2023/08/18 10:50:39;;;;;;;27.58;9.27;;;21.50;99.90;;;;;;4986934;28;20073;-81
2023/08/18 10:53:05;;;;;;;11.90;8.18;;;21.60;99.90;;;;;;4972245;28;20082;-81
2023/08/18 10:55:31;;;;;;;43.80;10.52;;;21.70;99.90;;;;;;4988952;28;20101;-81
2023/08/18 10:57:57;;;;;;;12.73;7.65;;;21.80;99.90;;;;;;4984915;28;20045;-81
2023/08/18 11:00:23;;;;;;;10.18;7.18;;;21.90;99.90;;;;;;4989764;28;20057;-81
2023/08/18 11:02:50;;;;;;;10.50;7.18;;;21.90;99.90;;;;;;4990085;28;20030;-81
2023/08/18 11:05:21;;;;;;;9.82;7.28;;;22.00;99.90;;;;;;4986685;28;20041;-81
2023/08/18 11:07:47;;;;;;;8.10;7.20;;;22.10;99.90;;;;;;4975013;28;20042;-81
2023/08/18 11:10:21;;;;;;;7.60;6.50;;;22.20;99.90;;;;;;4989518;28;20046;-81
2023/08/18 11:12:49;;;;;;;10.88;7.95;;;22.30;99.90;;;;;;4981948;28;20396;-81
2023/08/18 11:15:16;;;;;;;9.57;7.43;;;22.40;99.90;;;;;;4979930;28;20066;-81
2023/08/18 11:17:42;;;;;;;8.07;7.10;;;22.40;99.90;;;;;;4975273;28;20076;-82
2023/08/18 11:20:11;;;;;;;8.45;7.65;;;22.40;99.90;;;;;;4978200;28;20043;-81
2023/08/18 11:22:38;;;;;;;10.98;7.93;;;22.60;99.90;;;;;;4973578;28;20471;-82
2023/08/18 11:25:05;;;;;;;9.75;7.90;;;22.70;99.90;;;;;;4983070;28;20038;-82
2023/08/18 11:27:32;;;;;;;8.95;8.05;;;22.70;99.90;;;;;;5004471;28;20054;-82
2023/08/18 11:29:58;;;;;;;8.90;7.22;;;22.80;99.90;;;;;;4987996;28;20862;-80
2023/08/18 11:32:25;;;;;;;9.88;8.15;;;23.00;99.90;;;;;;4981934;28;20050;-79
2023/08/18 11:34:51;;;;;;;11.63;8.40;;;22.90;99.90;;;;;;4951889;28;20059;-80
2023/08/18 11:37:23;;;;;;;8.50;7.55;;;23.00;99.90;;;;;;4970961;28;20045;-80
2023/08/18 11:39:49;;;;;;;8.60;7.80;;;23.00;99.90;;;;;;4971873;28;20051;-80
2023/08/18 11:42:17;;;;;;;8.75;7.85;;;23.20;99.90;;;;;;4967951;28;20073;-80
2023/08/18 11:44:43;;;;;;;7.78;6.97;;;23.30;99.90;;;;;;4980563;28;20085;-80
2023/08/18 11:47:11;;;;;;;9.23;8.27;;;23.50;99.90;;;;;;4985534;28;20137;-81
2023/08/18 11:49:37;;;;;;;9.52;8.73;;;23.60;99.90;;;;;;4981947;28;20039;-79
2023/08/18 11:52:04;;;;;;;9.57;8.20;;;23.90;99.90;;;;;;4969572;28;20133;-81
2023/08/18 11:54:33;;;;;;;10.15;8.90;;;24.10;99.90;;;;;;4974297;28;20404;-82
2023/08/18 11:56:59;;;;;;;17.38;9.50;;;24.50;99.90;;;;;;4987184;28;20043;-82
2023/08/18 11:59:25;;;;;;;9.68;8.68;;;24.70;99.90;;;;;;4985557;28;20074;-82
2023/08/18 12:01:55;;;;;;;9.85;8.85;;;25.00;99.90;;;;;;4986477;28;20409;-81
2023/08/18 12:04:25;;;;;;;10.98;8.93;;;24.70;99.90;;;;;;4976148;28;20732;-82
2023/08/18 12:06:51;;;;;;;8.52;7.80;;;24.70;99.90;;;;;;4972256;28;20426;-81
2023/08/18 12:09:18;;;;;;;9.10;8.20;;;24.70;99.90;;;;;;5005657;28;20081;-82
2023/08/18 12:11:43;;;;;;;9.88;8.88;;;24.70;99.90;;;;;;5003064;28;20050;-82
2023/08/18 12:14:09;;;;;;;8.98;8.00;;;24.70;99.90;;;;;;4998892;28;20057;-82
2023/08/18 12:16:34;;;;;;;8.20;7.45;;;24.70;99.90;;;;;;4987978;28;20046;-82
2023/08/18 12:19:04;;;;;;;12.60;8.73;;;24.80;99.90;;;;;;4970891;28;20425;-81
2023/08/18 12:21:33;;;;;;;10.70;8.38;;;24.90;99.90;;;;;;4968619;28;20045;-83
2023/08/18 12:23:59;;;;;;;37.85;11.45;;;24.90;99.90;;;;;;4968731;28;20094;-82
2023/08/18 12:26:25;;;;;;;9.90;8.90;;;24.70;99.90;;;;;;4968951;28;20058;-83
2023/08/18 12:28:51;;;;;;;10.38;9.45;;;24.40;99.90;;;;;;4983718;28;20046;-82
2023/08/18 12:31:19;;;;;;;13.68;9.43;;;24.10;99.90;;;;;;4988703;28;20038;-82
2023/08/18 12:33:45;;;;;;;10.90;9.90;;;24.00;99.90;;;;;;4986242;28;20081;-82
2023/08/18 12:36:11;;;;;;;10.00;9.05;;;23.90;99.90;;;;;;4987798;28;20136;-81
2023/08/18 12:38:36;;;;;;;9.95;8.95;;;23.80;99.90;;;;;;4985269;28;20408;-82
2023/08/18 12:41:03;;;;;;;9.95;8.95;;;23.80;99.90;;;;;;4987207;28;20047;-82